Time;durP1;ratioP1;P1;durP2;ratioP2;P2;SDS_P1;SDS_P2;PMS_P1;PMS_P2;Temp;Humidity;BMP_temperature;BMP_pressure;BME280_temperature;BME280_humidity;BME280_pressure;Samples;Min_cycle;Max_cycle;Signal;HPM_P1;HPM_P2
2023/11/06 00:00:18;;;;;;;;;;;;;;;;;;5021613;28;19925;-70
2023/11/06 00:02:45;;;;;;;;;;;;;;;;;;5031577;28;19931;-70
2023/11/06 00:05:12;;;;;;;;;;;;;;;;;;5031158;28;19925;-69
2023/11/06 00:07:39;;;;;;;;;;;;;;;;;;5031895;28;19925;-69
2023/11/06 00:10:08;;;;;;;;;;;;;;;;;;5031761;28;19929;-69
2023/11/06 00:12:35;;;;;;;;;;;;;;;;;;5028671;28;20992;-68
2023/11/06 00:15:02;;;;;;;;;;;;;;;;;;5032809;28;19925;-68
2023/11/06 00:17:29;;;;;;;;;;;;;;;;;;5034185;28;20016;-68
2023/11/06 00:19:56;;;;;;;;;;;;;;;;;;5035652;28;20063;-69
2023/11/06 00:22:24;;;;;;;;;;;;;;;;;;5020318;28;19957;-69
2023/11/06 00:24:51;;;;;;;;;;;;;;;;;;5020883;28;19976;-69
2023/11/06 00:27:18;;;;;;;;;;;;;;;;;;5035350;28;19929;-69
2023/11/06 00:29:45;;;;;;;;;;;;;;;;;;5023835;28;19925;-69
2023/11/06 00:32:12;;;;;;;;;;;;;;;;;;5024514;28;19932;-69
2023/11/06 00:34:39;;;;;;;;;;;;;;;;;;5022682;28;20020;-68
2023/11/06 00:37:06;;;;;;;;;;;;;;;;;;5034155;28;19933;-69
2023/11/06 00:39:35;;;;;;;;;;;;;;;;;;5025678;28;20013;-69
2023/11/06 00:42:02;;;;;;;;;;;;;;;;;;5018308;28;20293;-69
2023/11/06 00:44:29;;;;;;;;;;;;;;;;;;5019558;28;19980;-68
2023/11/06 00:46:57;;;;;;;;;;;;;;;;;;5033281;28;20019;-70
2023/11/06 00:49:24;;;;;;;;;;;;;;;;;;5034661;28;20004;-68
2023/11/06 00:51:50;;;;;;;;;;;;;;;;;;5032295;28;20016;-69
2023/11/06 00:54:18;;;;;;;;;;;;;;;;;;5015446;28;19969;-69
2023/11/06 00:56:45;;;;;;;;;;;;;;;;;;5022772;28;19932;-69
2023/11/06 00:59:12;;;;;;;;;;;;;;;;;;5034362;28;20369;-69
2023/11/06 01:01:41;;;;;;;;;;;;;;;;;;5032567;28;20320;-69
2023/11/06 01:04:09;;;;;;;;;;;;;;;;;;5016402;28;19934;-69
2023/11/06 01:06:36;;;;;;;;;;;;;;;;;;5017874;28;20411;-69
2023/11/06 01:09:03;;;;;;;;;;;;;;;;;;5025180;28;20445;-69
2023/11/06 01:11:30;;;;;;;;;;;;;;;;;;5014474;28;19972;-70
2023/11/06 01:13:57;;;;;;;;;;;;;;;;;;5014986;28;20008;-70
2023/11/06 01:16:24;;;;;;;;;;;;;;;;;;5016938;28;19926;-70
2023/11/06 01:18:51;;;;;;;;;;;;;;;;;;5015111;28;19932;-70
2023/11/06 01:21:18;;;;;;;;;;;;;;;;;;5034071;28;20372;-67
2023/11/06 01:23:45;;;;;;;;;;;;;;;;;;5025210;28;19957;-69
2023/11/06 01:26:12;;;;;;;;;;;;;;;;;;5031550;28;19975;-69
2023/11/06 01:28:40;;;;;;;;;;;;;;;;;;5033403;28;19979;-68
2023/11/06 01:31:07;;;;;;;;;;;;;;;;;;5020582;28;19925;-69
2023/11/06 01:33:34;;;;;;;;;;;;;;;;;;5016316;28;19925;-71
2023/11/06 01:36:01;;;;;;;;;;;;;;;;;;5026772;28;20396;-69
2023/11/06 01:38:28;;;;;;;;;;;;;;;;;;5034016;28;19925;-69
2023/11/06 01:40:54;;;;;;;;;;;;;;;;;;5032985;28;20347;-69
2023/11/06 01:43:21;;;;;;;;;;;;;;;;;;5032729;28;20024;-71
2023/11/06 01:45:48;;;;;;;;;;;;;;;;;;5026417;28;20017;-69
2023/11/06 01:48:16;;;;;;;;;;;;;;;;;;5021021;28;19952;-67
2023/11/06 01:50:43;;;;;;;;;;;;;;;;;;5033270;28;19973;-68
2023/11/06 01:53:10;;;;;;;;;;;;;;;;;;5026724;28;19926;-69
2023/11/06 01:55:37;;;;;;;;;;;;;;;;;;5019332;28;19932;-68
2023/11/06 01:58:04;;;;;;;;;;;;;;;;;;5023458;28;20308;-68
2023/11/06 02:00:31;;;;;;;;;;;;;;;;;;5027345;28;20004;-68
2023/11/06 02:02:58;;;;;;;;;;;;;;;;;;5027886;28;19959;-68
2023/11/06 02:05:28;;;;;;;;;;;;;;;;;;5019135;28;20019;-69
2023/11/06 02:07:55;;;;;;;;;;;;;;;;;;5030633;28;19978;-69
2023/11/06 02:10:22;;;;;;;;;;;;;;;;;;5015202;28;19931;-68
2023/11/06 02:12:49;;;;;;;;;;;;;;;;;;5024770;28;19987;-68
2023/11/06 02:15:16;;;;;;;;;;;;;;;;;;5022431;28;19969;-68
2023/11/06 02:17:43;;;;;;;;;;;;;;;;;;5029614;28;19971;-68
2023/11/06 02:20:11;;;;;;;;;;;;;;;;;;5038099;28;20513;-69
2023/11/06 02:22:38;;;;;;;;;;;;;;;;;;5024985;28;20039;-69
2023/11/06 02:25:05;;;;;;;;;;;;;;;;;;5030538;28;19929;-68
2023/11/06 02:27:32;;;;;;;;;;;;;;;;;;5030965;28;19925;-69
2023/11/06 02:29:59;;;;;;;;;;;;;;;;;;5015442;28;19926;-69
2023/11/06 02:32:26;;;;;;;;;;;;;;;;;;5023576;28;19980;-69
2023/11/06 02:34:53;;;;;;;;;;;;;;;;;;5021354;28;19975;-69
2023/11/06 02:37:20;;;;;;;;;;;;;;;;;;5033057;28;19968;-70
2023/11/06 02:39:49;;;;;;;;;;;;;;;;;;5017386;28;19925;-69
2023/11/06 02:42:16;;;;;;;;;;;;;;;;;;5021939;28;19925;-69
2023/11/06 02:44:43;;;;;;;;;;;;;;;;;;5018435;28;19933;-69
2023/11/06 02:47:10;;;;;;;;;;;;;;;;;;5013389;28;20339;-69
2023/11/06 02:49:37;;;;;;;;;;;;;;;;;;5015530;28;20011;-69
2023/11/06 02:52:04;;;;;;;;;;;;;;;;;;5020790;28;21774;-68
2023/11/06 02:54:31;;;;;;;;;;;;;;;;;;5029589;28;19964;-68
2023/11/06 02:56:59;;;;;;;;;;;;;;;;;;5016257;28;19976;-68
2023/11/06 02:59:25;;;;;;;;;;;;;;;;;;5021088;28;19969;-68
2023/11/06 03:01:52;;;;;;;;;;;;;;;;;;5017278;28;19972;-69
2023/11/06 03:04:19;;;;;;;;;;;;;;;;;;5019586;28;19991;-68
2023/11/06 03:06:46;;;;;;;;;;;;;;;;;;5023495;28;20439;-69
2023/11/06 03:09:14;;;;;;;;;;;;;;;;;;5032557;28;19976;-70
2023/11/06 03:11:41;;;;;;;;;;;;;;;;;;5032517;28;19925;-69
2023/11/06 03:14:08;;;;;;;;;;;;;;;;;;5029913;28;19925;-69
2023/11/06 03:16:35;;;;;;;;;;;;;;;;;;5021557;28;19931;-70
2023/11/06 03:19:02;;;;;;;;;;;;;;;;;;5021348;28;19925;-70
2023/11/06 03:21:29;;;;;;;;;;;;;;;;;;5023918;28;19929;-70
2023/11/06 03:23:55;;;;;;;;;;;;;;;;;;5012352;28;20012;-69
2023/11/06 03:26:23;;;;;;;;;;;;;;;;;;5013808;28;19933;-69
2023/11/06 03:28:50;;;;;;;;;;;;;;;;;;5017750;28;20419;-69
2023/11/06 03:31:17;;;;;;;;;;;;;;;;;;5025770;28;19965;-69
2023/11/06 03:33:44;;;;;;;;;;;;;;;;;;5012616;28;20017;-68
2023/11/06 03:36:11;;;;;;;;;;;;;;;;;;5021803;28;19925;-69
2023/11/06 03:38:38;;;;;;;;;;;;;;;;;;5031747;28;20316;-69
2023/11/06 03:41:05;;;;;;;;;;;;;;;;;;5031314;28;19929;-69
2023/11/06 03:43:32;;;;;;;;;;;;;;;;;;5030330;28;19925;-70
2023/11/06 03:45:59;;;;;;;;;;;;;;;;;;5032550;28;20007;-70
2023/11/06 03:48:26;;;;;;;;;;;;;;;;;;5021809;28;20348;-69
2023/11/06 03:50:53;;;;;;;;;;;;;;;;;;5016794;28;20016;-69
2023/11/06 03:53:20;;;;;;;;;;;;;;;;;;5019304;28;20372;-68
2023/11/06 03:55:47;;;;;;;;;;;;;;;;;;5035381;28;19991;-69
2023/11/06 03:58:14;;;;;;;;;;;;;;;;;;5033122;28;20380;-69
2023/11/06 04:00:42;;;;;;;;;;;;;;;;;;5034716;28;19925;-68
2023/11/06 04:03:09;;;;;;;;;;;;;;;;;;5015465;28;20020;-69
2023/11/06 04:05:36;;;;;;;;;;;;;;;;;;5021304;28;19925;-69
2023/11/06 04:08:03;;;;;;;;;;;;;;;;;;5023905;28;19926;-69
2023/11/06 04:10:30;;;;;;;;;;;;;;;;;;5016739;28;20020;-69
2023/11/06 04:12:57;;;;;;;;;;;;;;;;;;5016740;28;20340;-69
2023/11/06 04:15:24;;;;;;;;;;;;;;;;;;5034639;28;19925;-69
2023/11/06 04:17:51;;;;;;;;;;;;;;;;;;5030776;28;20373;-69
2023/11/06 04:20:18;;;;;;;;;;;;;;;;;;5032883;28;20420;-69
2023/11/06 04:22:46;;;;;;;;;;;;;;;;;;5016691;28;19925;-69
2023/11/06 04:25:13;;;;;;;;;;;;;;;;;;5035067;28;19932;-68
2023/11/06 04:27:40;;;;;;;;;;;;;;;;;;5030718;28;20016;-69
2023/11/06 04:30:08;;;;;;;;;;;;;;;;;;5033504;28;19925;-69
2023/11/06 04:32:35;;;;;;;;;;;;;;;;;;5034984;28;20296;-69
2023/11/06 04:35:02;;;;;;;;;;;;;;;;;;5035127;28;19968;-68
2023/11/06 04:37:29;;;;;;;;;;;;;;;;;;5035011;28;19933;-69
2023/11/06 04:39:56;;;;;;;;;;;;;;;;;;5016884;28;20332;-68
2023/11/06 04:42:23;;;;;;;;;;;;;;;;;;5032322;28;19956;-69
2023/11/06 04:44:51;;;;;;;;;;;;;;;;;;5031471;28;19964;-68
2023/11/06 04:47:18;;;;;;;;;;;;;;;;;;5029194;28;19925;-68
2023/11/06 04:49:45;;;;;;;;;;;;;;;;;;5021800;28;19968;-69
2023/11/06 04:52:12;;;;;;;;;;;;;;;;;;5015057;28;20034;-68
2023/11/06 04:54:39;;;;;;;;;;;;;;;;;;5034473;28;19925;-68
2023/11/06 04:57:06;;;;;;;;;;;;;;;;;;5029801;28;20053;-69
2023/11/06 04:59:33;;;;;;;;;;;;;;;;;;5024748;28;20467;-69
2023/11/06 05:02:00;;;;;;;;;;;;;;;;;;5030275;28;19932;-69
2023/11/06 05:04:27;;;;;;;;;;;;;;;;;;5033815;28;19925;-69
2023/11/06 05:06:55;;;;;;;;;;;;;;;;;;5021379;28;20014;-69
2023/11/06 05:09:22;;;;;;;;;;;;;;;;;;5027337;28;20376;-69
2023/11/06 05:11:49;;;;;;;;;;;;;;;;;;5025206;28;20380;-69
2023/11/06 05:14:16;;;;;;;;;;;;;;;;;;5030552;28;19925;-70
2023/11/06 05:16:46;;;;;;;;;;;;;;;;;;5032675;28;19964;-69
2023/11/06 05:19:13;;;;;;;;;;;;;;;;;;5027712;28;19926;-68
2023/11/06 05:21:40;;;;;;;;;;;;;;;;;;5022488;28;19949;-68
2023/11/06 05:24:08;;;;;;;;;;;;;;;;;;5032984;28;19925;-70
2023/11/06 05:26:37;;;;;;;;;;;;;;;;;;5032317;28;19979;-69
2023/11/06 05:29:04;;;;;;;;;;;;;;;;;;5033623;28;19925;-69
2023/11/06 05:31:33;;;;;;;;;;;;;;;;;;5030536;28;20023;-69
2023/11/06 05:34:03;;;;;;;;;;;;;;;;;;5021430;28;20513;-69
2023/11/06 05:36:33;;;;;;;;;;;;;;;;;;5022570;28;20451;-70
2023/11/06 05:39:00;;;;;;;;;;;;;;;;;;5014166;28;19987;-70
2023/11/06 05:41:27;;;;;;;;;;;;;;;;;;5019881;28;20028;-69
2023/11/06 05:43:55;;;;;;;;;;;;;;;;;;5013806;28;19926;-69
2023/11/06 05:46:25;;;;;;;;;;;;;;;;;;5013562;28;19925;-69
2023/11/06 05:48:52;;;;;;;;;;;;;;;;;;5018124;28;20082;-69
2023/11/06 05:51:19;;;;;;;;;;;;;;;;;;5022130;28;20273;-69
2023/11/06 05:53:46;;;;;;;;;;;;;;;;;;5019373;28;19926;-68
2023/11/06 05:56:13;;;;;;;;;;;;;;;;;;5026735;28;20347;-68
2023/11/06 05:58:40;;;;;;;;;;;;;;;;;;5024186;28;19971;-68
2023/11/06 06:01:07;;;;;;;;;;;;;;;;;;5019081;28;20016;-70
2023/11/06 06:03:36;;;;;;;;;;;;;;;;;;5014572;28;20595;-70
2023/11/06 06:06:04;;;;;;;;;;;;;;;;;;5013656;28;20347;-71
2023/11/06 06:08:31;;;;;;;;;;;;;;;;;;5012917;28;20016;-70
2023/11/06 06:10:58;;;;;;;;;;;;;;;;;;5016991;28;19930;-71
2023/11/06 06:13:25;;;;;;;;;;;;;;;;;;5021810;28;20368;-70
2023/11/06 06:15:52;;;;;;;;;;;;;;;;;;5014957;28;20323;-72
2023/11/06 06:18:19;;;;;;;;;;;;;;;;;;5025140;28;20008;-72
2023/11/06 06:20:46;;;;;;;;;;;;;;;;;;5012745;28;20369;-72
2023/11/06 06:23:13;;;;;;;;;;;;;;;;;;5014724;28;19926;-72
2023/11/06 06:25:43;;;;;;;;;;;;;;;;;;5015934;28;19980;-72
2023/11/06 06:28:10;;;;;;;;;;;;;;;;;;5027817;28;19987;-72
2023/11/06 06:30:37;;;;;;;;;;;;;;;;;;5018378;28;20003;-72
2023/11/06 06:33:04;;;;;;;;;;;;;;;;;;5020166;28;19925;-72
2023/11/06 06:35:31;;;;;;;;;;;;;;;;;;5014431;28;20024;-72
2023/11/06 06:37:58;;;;;;;;;;;;;;;;;;5016235;28;19926;-71
2023/11/06 06:40:26;;;;;;;;;;;;;;;;;;5013874;28;19956;-72
2023/11/06 06:42:53;;;;;;;;;;;;;;;;;;5017157;28;20012;-72
2023/11/06 06:45:20;;;;;;;;;;;;;;;;;;5026767;28;19955;-72
2023/11/06 06:47:47;;;;;;;;;;;;;;;;;;5021242;28;20377;-72
2023/11/06 06:50:14;;;;;;;;;;;;;;;;;;5012931;28;20389;-72
2023/11/06 06:52:41;;;;;;;;;;;;;;;;;;5015011;28;19929;-72
2023/11/06 06:55:08;;;;;;;;;;;;;;;;;;5015058;28;20392;-72
2023/11/06 06:57:35;;;;;;;;;;;;;;;;;;5017252;28;19957;-72
2023/11/06 07:00:05;;;;;;;;;;;;;;;;;;5016045;28;19961;-71
2023/11/06 07:02:32;;;;;;;;;;;;;;;;;;5016959;28;19933;-71
2023/11/06 07:04:59;;;;;;;;;;;;;;;;;;5026786;28;19929;-72
2023/11/06 07:07:26;;;;;;;;;;;;;;;;;;5022061;28;20368;-72
2023/11/06 07:09:53;;;;;;;;;;;;;;;;;;5074730;22;20505;-70
2023/11/06 07:12:20;;;;;;;;;;;;;;;;;;5070719;28;19928;-70
2023/11/06 07:14:47;;;;;;;;;;;;;;;;;;5071579;28;19924;-69
2023/11/06 07:17:14;;;;;;;;;;;;;;;;;;5066264;28;20345;-70
2023/11/06 07:19:42;;;;;;;;;;;;;;;;;;5057190;28;19928;-72
2023/11/06 07:22:09;;;;;;;;;;;;;;;;;;5073302;28;20287;-71
2023/11/06 07:24:36;;;;;;;;;;;;;;;;;;5074918;28;20012;-71
2023/11/06 07:27:04;;;;;;;;;;;;;;;;;;5074685;28;19925;-71
2023/11/06 07:29:31;;;;;;;;;;;;;;;;;;5070867;28;19932;-72
2023/11/06 07:31:58;;;;;;;;;;;;;;;;;;5075276;28;19929;-72
2023/11/06 07:34:25;;;;;;;;;;;;;;;;;;5083438;28;20010;-71
2023/11/06 07:36:52;;;;;;;;;;;;;;;;;;5072396;28;19925;-73
2023/11/06 07:39:19;;;;;;;;;;;;;;;;;;5074013;28;19967;-71
2023/11/06 07:41:46;;;;;;;;;;;;;;;;;;5063997;28;19931;-71
2023/11/06 07:44:14;;;;;;;;;;;;;;;;;;5075177;28;20221;-72
2023/11/06 07:46:41;;;;;;;;;;;;;;;;;;5074775;28;19931;-74
2023/11/06 07:49:08;;;;;;;;;;;;;;;;;;5064992;28;19925;-72
2023/11/06 07:51:35;;;;;;;;;;;;;;;;;;5076395;28;19931;-73
2023/11/06 07:54:02;;;;;;;;;;;;;;;;;;5075018;28;19987;-73
2023/11/06 07:56:29;;;;;;;;;;;;;;;;;;5074202;28;20399;-72
2023/11/06 07:58:56;;;;;;;;;;;;;;;;;;5065537;28;19974;-73
2023/11/06 08:01:23;;;;;;;;;;;;;;;;;;5059908;28;20359;-73
2023/11/06 08:03:50;;;;;;;;;;;;;;;;;;5072262;28;19924;-72
2023/11/06 08:06:17;;;;;;;;;;;;;;;;;;5066817;28;19928;-73
2023/11/06 08:08:44;;;;;;;;;;;;;;;;;;5069365;28;19924;-73
2023/11/06 08:11:11;;;;;;;;;;;;;;;;;;5070681;28;19947;-73
2023/11/06 08:13:38;;;;;;;;;;;;;;;;;;5071410;28;20418;-73
2023/11/06 08:16:05;;;;;;;;;;;;;;;;;;5073548;28;20593;-73
2023/11/06 08:18:32;;;;;;;;;;;;;;;;;;5072916;28;19964;-73
2023/11/06 08:20:59;;;;;;;;;;;;;;;;;;5070330;28;20027;-72
2023/11/06 08:23:27;;;;;;;;;;;;;;;;;;5069635;28;19929;-72
2023/11/06 08:25:54;;;;;;;;;;;;;;;;;;5072848;28;19932;-71
2023/11/06 08:28:21;;;;;;;;;;;;;;;;;;5060411;28;19924;-72
2023/11/06 08:30:48;;;;;;;;;;;;;;;;;;5074275;28;19947;-72
2023/11/06 08:33:15;;;;;;;;;;;;;;;;;;5072381;28;20334;-72
2023/11/06 08:35:43;;;;;;;;;;;;;;;;;;5071279;28;20011;-72
2023/11/06 08:38:10;;;;;;;;;;;;;;;;;;5067927;28;19929;-72
2023/11/06 08:40:37;;;;;;;;;;;;;;;;;;5067834;28;19978;-72
2023/11/06 08:43:05;;;;;;;;;;;;;;;;;;5069365;28;19967;-72
2023/11/06 08:45:32;;;;;;;;;;;;;;;;;;5068327;28;20276;-72
2023/11/06 08:47:59;;;;;;;;;;;;;;;;;;5065644;28;19960;-72
2023/11/06 08:50:26;;;;;;;;;;;;;;;;;;5066491;28;20000;-72
2023/11/06 08:52:53;;;;;;;;;;;;;;;;;;5063774;28;19975;-72
2023/11/06 08:55:20;;;;;;;;;;;;;;;;;;5068847;28;20008;-72
2023/11/06 08:57:47;;;;;;;;;;;;;;;;;;5063523;28;19933;-72
2023/11/06 09:00:14;;;;;;;;;;;;;;;;;;5063002;28;19947;-72
2023/11/06 09:02:42;;;;;;;;;;;;;;;;;;5061500;28;20448;-72
2023/11/06 09:05:09;;;;;;;;;;;;;;;;;;5066098;28;19933;-72
2023/11/06 09:07:36;;;;;;;;;;;;;;;;;;5067537;28;19925;-72
2023/11/06 09:10:04;;;;;;;;;;;;;;;;;;5069504;28;19932;-72
2023/11/06 09:12:31;;;;;;;;;;;;;;;;;;5070477;28;20383;-72
2023/11/06 09:14:58;;;;;;;;;;;;;;;;;;5070780;28;20007;-72
2023/11/06 09:17:24;;;;;;;;;;;;;;;;;;5073258;28;19932;-72
2023/11/06 09:19:51;;;;;;;;;;;;;;;;;;5072126;28;20019;-72
2023/11/06 09:22:19;;;;;;;;;;;;;;;;;;5072512;28;19978;-72
2023/11/06 09:24:46;;;;;;;;;;;;;;;;;;5066256;28;19924;-73
2023/11/06 09:27:13;;;;;;;;;;;;;;;;;;5063263;28;19943;-73
2023/11/06 09:29:40;;;;;;;;;;;;;;;;;;5061325;28;20414;-73
2023/11/06 09:32:07;;;;;;;;;;;;;;;;;;5062169;28;20405;-72
2023/11/06 09:34:35;;;;;;;;;;;;;;;;;;5060237;28;19924;-73
2023/11/06 09:37:02;;;;;;;;;;;;;;;;;;5059817;28;19929;-71
2023/11/06 09:39:29;;;;;;;;;;;;;;;;;;5062950;28;19924;-71
2023/11/06 09:41:56;;;;;;;;;;;;;;;;;;5065989;28;19967;-71
2023/11/06 09:44:23;;;;;;;;;;;;;;;;;;5071561;28;20016;-73
2023/11/06 09:46:50;;;;;;;;;;;;;;;;;;5066165;28;19924;-72
2023/11/06 09:49:22;;;;;;;;;;;;;;;;;;5059604;28;19929;-71
2023/11/06 09:51:48;;;;;;;;;;;;;;;;;;5063139;28;19970;-73
2023/11/06 09:54:15;;;;;;;;;;;;;;;;;;5067211;28;20363;-72
2023/11/06 09:56:45;;;;;;;;;;;;;;;;;;5066363;28;20027;-73
2023/11/06 09:59:12;;;;;;;;;;;;;;;;;;5066252;28;19929;-71
2023/11/06 10:01:39;;;;;;;;;;;;;;;;;;5062831;28;19924;-73
2023/11/06 10:04:07;;;;;;;;;;;;;;;;;;5061293;28;20299;-72
2023/11/06 10:06:34;;;;;;;;;;;;;;;;;;5064249;28;19924;-72
2023/11/06 10:09:02;;;;;;;;;;;;;;;;;;5072369;28;19929;-73
2023/11/06 10:11:29;;;;;;;;;;;;;;;;;;5072327;28;20012;-73
2023/11/06 10:13:58;;;;;;;;;;;;;;;;;;5063653;28;19924;-73
2023/11/06 10:16:25;;;;;;;;;;;;;;;;;;5062438;28;19924;-73
2023/11/06 10:18:52;;;;;;;;;;;;;;;;;;5069539;28;19931;-73
2023/11/06 10:21:19;;;;;;;;;;;;;;;;;;5060969;28;19931;-74
2023/11/06 10:23:46;;;;;;;;;;;;;;;;;;5061350;28;19931;-73
2023/11/06 10:26:13;;;;;;;;;;;;;;;;;;5060540;28;19967;-72
2023/11/06 10:28:41;;;;;;;;;;;;;;;;;;5065030;28;20345;-72
2023/11/06 10:31:08;;;;;;;;;;;;;;;;;;5063360;28;20443;-72
2023/11/06 10:33:36;;;;;;;;;;;;;;;;;;5062828;28;19932;-71
2023/11/06 10:36:03;;;;;;;;;;;;;;;;;;5063854;28;19925;-73
2023/11/06 10:38:30;;;;;;;;;;;;;;;;;;5060154;28;19943;-71
2023/11/06 10:40:57;;;;;;;;;;;;;;;;;;5059930;28;20008;-72
2023/11/06 10:43:24;;;;;;;;;;;;;;;;;;5054124;28;20015;-72
2023/11/06 10:45:50;;;;;;;;;;;;;;;;;;5064710;28;19929;-72
2023/11/06 10:48:18;;;;;;;;;;;;;;;;;;5065076;28;20008;-72
2023/11/06 10:50:45;;;;;;;;;;;;;;;;;;5062338;28;19924;-72
2023/11/06 10:53:12;;;;;;;;;;;;;;;;;;5062625;28;19931;-72
2023/11/06 10:55:39;;;;;;;;;;;;;;;;;;5057310;28;19928;-73
2023/11/06 10:58:06;;;;;;;;;;;;;;;;;;5063247;28;19932;-73
2023/11/06 11:00:33;;;;;;;;;;;;;;;;;;5060811;28;20015;-73
2023/11/06 11:03:01;;;;;;;;;;;;;;;;;;5060710;28;19924;-73
2023/11/06 11:05:28;;;;;;;;;;;;;;;;;;5058653;28;19932;-72
2023/11/06 11:07:56;;;;;;;;;;;;;;;;;;5068485;28;19932;-72
2023/11/06 11:10:26;;;;;;;;;;;;;;;;;;5065042;28;19929;-71
2023/11/06 11:12:55;;;;;;;;;;;;;;;;;;5067416;28;19928;-73
2023/11/06 11:15:22;;;;;;;;;;;;;;;;;;5060807;28;20272;-71
2023/11/06 11:17:49;;;;;;;;;;;;;;;;;;5060056;28;19974;-73
2023/11/06 11:20:17;;;;;;;;;;;;;;;;;;5058662;28;19970;-73
2023/11/06 11:22:44;;;;;;;;;;;;;;;;;;5062841;28;19932;-72
2023/11/06 11:25:11;;;;;;;;;;;;;;;;;;5065125;28;19950;-72
2023/11/06 11:27:38;;;;;;;;;;;;;;;;;;5065992;28;20384;-72
2023/11/06 11:30:04;;;;;;;;;;;;;;;;;;5064919;28;19932;-73
2023/11/06 11:32:35;;;;;;;;;;;;;;;;;;5060623;28;19925;-73
2023/11/06 11:35:02;;;;;;;;;;;;;;;;;;5063360;28;19955;-74
2023/11/06 11:37:29;;;;;;;;;;;;;;;;;;5061455;28;19983;-73
2023/11/06 11:39:58;;;;;;;;;;;;;;;;;;5060943;28;20295;-73
2023/11/06 11:42:25;;;;;;;;;;;;;;;;;;5064655;28;19947;-73
2023/11/06 11:44:52;;;;;;;;;;;;;;;;;;5066364;28;20037;-73
2023/11/06 11:47:19;;;;;;;;;;;;;;;;;;5059110;28;19986;-70
2023/11/06 11:49:45;;;;;;;;;;;;;;;;;;5062785;28;20165;-73
2023/11/06 11:52:13;;;;;;;;;;;;;;;;;;5061865;28;19924;-73
2023/11/06 11:54:40;;;;;;;;;;;;;;;;;;5063214;28;20119;-73
2023/11/06 11:57:08;;;;;;;;;;;;;;;;;;5059242;28;19929;-72
2023/11/06 11:59:35;;;;;;;;;;;;;;;;;;5057809;28;19931;-73
2023/11/06 12:02:02;;;;;;;;;;;;;;;;;;5060624;28;20024;-72
2023/11/06 12:04:29;;;;;;;;;;;;;;;;;;5060947;28;20345;-75
2023/11/06 12:06:56;;;;;;;;;;;;;;;;;;5061590;28;19925;-72
2023/11/06 12:09:23;;;;;;;;;;;;;;;;;;5062984;28;19955;-73
2023/11/06 12:11:50;;;;;;;;;;;;;;;;;;5059005;28;19960;-72
2023/11/06 12:14:17;;;;;;;;;;;;;;;;;;5064616;28;20509;-73
2023/11/06 12:16:44;;;;;;;;;;;;;;;;;;5064247;28;20009;-72
2023/11/06 12:19:11;;;;;;;;;;;;;;;;;;5063183;28;19925;-73
2023/11/06 12:21:38;;;;;;;;;;;;;;;;;;5071155;28;19932;-72
2023/11/06 12:24:07;;;;;;;;;;;;;;;;;;5064295;28;19979;-73
2023/11/06 12:26:34;;;;;;;;;;;;;;;;;;5063193;28;19924;-73
2023/11/06 12:29:01;;;;;;;;;;;;;;;;;;5063564;28;19973;-72
2023/11/06 12:31:28;;;;;;;;;;;;;;;;;;5061937;28;20302;-72
2023/11/06 12:33:55;;;;;;;;;;;;;;;;;;5061852;28;19960;-72
2023/11/06 12:36:22;;;;;;;;;;;;;;;;;;5067048;28;19974;-73
2023/11/06 12:38:49;;;;;;;;;;;;;;;;;;5065780;28;19983;-73
2023/11/06 12:41:18;;;;;;;;;;;;;;;;;;5073348;28;19925;-74
2023/11/06 12:43:45;;;;;;;;;;;;;;;;;;5056174;28;19928;-73
2023/11/06 12:46:12;;;;;;;;;;;;;;;;;;5069537;28;20379;-71
2023/11/06 12:48:39;;;;;;;;;;;;;;;;;;5069818;28;20366;-73
2023/11/06 12:51:09;;;;;;;;;;;;;;;;;;5063423;28;19982;-73
2023/11/06 12:53:36;;;;;;;;;;;;;;;;;;5068693;28;19924;-73
2023/11/06 12:56:03;;;;;;;;;;;;;;;;;;5065332;28;19928;-73
2023/11/06 12:58:30;;;;;;;;;;;;;;;;;;5064698;28;19924;-72
2023/11/06 13:00:58;;;;;;;;;;;;;;;;;;5066561;28;20417;-73
2023/11/06 13:03:27;;;;;;;;;;;;;;;;;;5062204;28;19932;-73
2023/11/06 13:05:56;;;;;;;;;;;;;;;;;;5067249;28;19931;-73
2023/11/06 13:08:23;;;;;;;;;;;;;;;;;;5065741;28;20387;-73
2023/11/06 13:10:50;;;;;;;;;;;;;;;;;;5063808;28;19984;-72
2023/11/06 13:13:17;;;;;;;;;;;;;;;;;;5064850;28;20294;-72
2023/11/06 13:15:44;;;;;;;;;;;;;;;;;;5064855;28;19924;-72
2023/11/06 13:18:11;;;;;;;;;;;;;;;;;;5065520;28;20486;-73
2023/11/06 13:20:45;;;;;;;;;;;;;;;;;;5063315;28;19929;-73
2023/11/06 13:23:12;;;;;;;;;;;;;;;;;;5068296;28;20395;-73
2023/11/06 13:25:39;;;;;;;;;;;;;;;;;;5063137;28;19950;-73
2023/11/06 13:28:06;;;;;;;;;;;;;;;;;;5065029;28;19955;-73
2023/11/06 13:30:33;;;;;;;;;;;;;;;;;;5062990;28;20029;-73
2023/11/06 13:33:06;;;;;;;;;;;;;;;;;;5063503;28;19978;-72
2023/11/06 13:35:34;;;;;;;;;;;;;;;;;;5067926;28;20462;-72
2023/11/06 13:38:01;;;;;;;;;;;;;;;;;;5067828;28;19924;-72
2023/11/06 13:40:30;;;;;;;;;;;;;;;;;;5065638;28;19925;-74
2023/11/06 13:42:57;;;;;;;;;;;;;;;;;;5062322;28;19959;-72
2023/11/06 13:45:24;;;;;;;;;;;;;;;;;;5068407;28;20012;-72
2023/11/06 13:47:54;;;;;;;;;;;;;;;;;;5068793;28;19983;-73
2023/11/06 13:50:26;;;;;;;;;;;;;;;;;;5063344;28;20404;-72
2023/11/06 13:52:59;;;;;;;;;;;;;;;;;;5066429;28;20050;-70
2023/11/06 13:55:31;;;;;;;;;;;;;;;;;;5064382;28;19932;-63
2023/11/06 13:57:58;;;;;;;;;;;;;;;;;;5058429;28;20008;-62
2023/11/06 14:00:33;;;;;;;;;;;;;;;;;;5064970;28;19932;-61
2023/11/06 14:03:02;;;;;;;;;;;;;;;;;;5068900;28;19924;-62
2023/11/06 14:05:31;;;;;;;;;;;;;;;;;;5071049;28;20382;-61
2023/11/06 14:07:59;;;;;;;;;;;;;;;;;;5055299;28;19932;-61
2023/11/06 14:10:30;;;;;;;;;;;;;;;;;;5069336;28;19928;-62
2023/11/06 14:12:57;;;;;;;;;;;;;;;;;;5067338;28;20034;-61
2023/11/06 14:15:24;;;;;;;;;;;;;;;;;;5058763;28;20011;-61
2023/11/06 14:17:53;;;;;;;;;;;;;;;;;;5064647;28;19925;-61
2023/11/06 14:20:20;;;;;;;;;;;;;;;;;;5062510;28;19932;-61
2023/11/06 14:22:47;;;;;;;;;;;;;;;;;;5065280;28;19976;-61
2023/11/06 14:25:14;;;;;;;;;;;;;;;;;;5064701;28;19925;-71
2023/11/06 14:27:42;;;;;;;;;;;;;;;;;;5062169;28;19935;-71
2023/11/06 14:30:09;;;;;;;;;;;;;;;;;;5060925;28;20450;-71
2023/11/06 14:32:36;;;;;;;;;;;;;;;;;;5063905;28;19932;-71
2023/11/06 14:35:04;;;;;;;;;;;;;;;;;;5062121;28;19967;-72
2023/11/06 14:37:34;;;;;;;;;;;;;;;;;;5061690;28;20016;-71
2023/11/06 14:40:01;;;;;;;;;;;;;;;;;;5066561;28;19925;-71
2023/11/06 14:42:28;;;;;;;;;;;;;;;;;;5065296;28;20345;-71
2023/11/06 14:44:55;;;;;;;;;;;;;;;;;;5066028;28;20365;-71
2023/11/06 14:47:23;;;;;;;;;;;;;;;;;;5068973;28;20020;-72
2023/11/06 14:49:50;;;;;;;;;;;;;;;;;;5069159;28;19925;-72
2023/11/06 14:52:17;;;;;;;;;;;;;;;;;;5063101;28;19970;-72
2023/11/06 14:54:44;;;;;;;;;;;;;;;;;;5065329;28;19924;-71
2023/11/06 14:57:12;;;;;;;;;;;;;;;;;;5057178;28;20383;-71
2023/11/06 14:59:39;;;;;;;;;;;;;;;;;;5063430;28;19924;-72
2023/11/06 15:02:07;;;;;;;;;;;;;;;;;;5068599;28;19928;-74
2023/11/06 15:04:35;;;;;;;;;;;;;;;;;;5065492;28;19924;-73
2023/11/06 15:07:02;;;;;;;;;;;;;;;;;;5054437;28;20012;-71
2023/11/06 15:09:29;;;;;;;;;;;;;;;;;;5065176;28;20013;-71
2023/11/06 15:11:56;;;;;;;;;;;;;;;;;;5065539;28;19924;-71
2023/11/06 15:14:23;;;;;;;;;;;;;;;;;;5066603;28;19931;-73
2023/11/06 15:16:50;;;;;;;;;;;;;;;;;;5063775;28;19971;-72
2023/11/06 15:19:18;;;;;;;;;;;;;;;;;;5062049;28;20019;-71
2023/11/06 15:21:45;;;;;;;;;;;;;;;;;;5062436;28;19932;-72
2023/11/06 15:24:12;;;;;;;;;;;;;;;;;;5066835;28;19978;-72
2023/11/06 15:26:39;;;;;;;;;;;;;;;;;;5064282;28;19960;-73
2023/11/06 15:29:08;;;;;;;;;;;;;;;;;;5065024;28;19951;-71
2023/11/06 15:31:35;;;;;;;;;;;;;;;;;;5064800;28;19933;-72
2023/11/06 15:34:03;;;;;;;;;;;;;;;;;;5063507;28;19995;-73
2023/11/06 15:36:30;;;;;;;;;;;;;;;;;;5066786;28;19986;-75
2023/11/06 15:38:57;;;;;;;;;;;;;;;;;;5069208;28;19968;-74
2023/11/06 15:41:25;;;;;;;;;;;;;;;;;;5067761;28;19947;-74
2023/11/06 15:43:52;;;;;;;;;;;;;;;;;;5069592;28;19932;-73
2023/11/06 15:46:19;;;;;;;;;;;;;;;;;;5072309;28;19975;-73
2023/11/06 15:48:46;;;;;;;;;;;;;;;;;;5064042;28;19972;-72
2023/11/06 15:51:13;;;;;;;;;;;;;;;;;;5069107;28;19925;-73
2023/11/06 15:53:40;;;;;;;;;;;;;;;;;;5073570;28;20341;-75
2023/11/06 15:56:09;;;;;;;;;;;;;;;;;;5070054;28;19995;-70
2023/11/06 15:58:36;;;;;;;;;;;;;;;;;;5071893;28;19936;-75
2023/11/06 16:01:04;;;;;;;;;;;;;;;;;;5070418;28;20287;-74
2023/11/06 16:03:31;;;;;;;;;;;;;;;;;;5072811;28;20030;-75
2023/11/06 16:05:58;;;;;;;;;;;;;;;;;;5073243;28;20015;-73
2023/11/06 16:08:25;;;;;;;;;;;;;;;;;;5064053;28;19932;-73
2023/11/06 16:10:52;;;;;;;;;;;;;;;;;;5072562;28;20371;-74
2023/11/06 16:13:21;;;;;;;;;;;;;;;;;;5073866;28;20136;-74
2023/11/06 16:15:48;;;;;;;;;;;;;;;;;;5071726;28;19925;-75
2023/11/06 16:18:17;;;;;;;;;;;;;;;;;;5064590;28;20420;-73
2023/11/06 16:20:44;;;;;;;;;;;;;;;;;;5063249;28;20029;-75
2023/11/06 16:23:11;;;;;;;;;;;;;;;;;;5062898;28;19932;-74
2023/11/06 16:25:38;;;;;;;;;;;;;;;;;;5064547;28;19929;-73
2023/11/06 16:28:06;;;;;;;;;;;;;;;;;;5066646;28;20031;-74
2023/11/06 16:30:33;;;;;;;;;;;;;;;;;;5064959;28;19933;-75
2023/11/06 16:33:00;;;;;;;;;;;;;;;;;;5063503;28;19924;-72
2023/11/06 16:35:28;;;;;;;;;;;;;;;;;;5064751;28;19929;-74
2023/11/06 16:37:55;;;;;;;;;;;;;;;;;;5059007;28;19936;-73
2023/11/06 16:40:22;;;;;;;;;;;;;;;;;;5062146;28;20458;-71
2023/11/06 16:42:49;;;;;;;;;;;;;;;;;;5068847;28;20004;-72
2023/11/06 16:45:16;;;;;;;;;;;;;;;;;;5065342;28;20293;-73